createdAt,value
2022-11-21T13:04:26.952Z,0.70
2022-11-21T13:06:56.817Z,0.80
2022-11-21T13:09:27.695Z,0.80
2022-11-21T13:12:00.646Z,0.90
2022-11-21T13:14:48.282Z,0.80
2022-11-21T13:17:30.609Z,0.80
2022-11-21T13:19:59.609Z,0.80
2022-11-21T13:22:35.927Z,0.70
2022-11-21T13:25:35.251Z,0.90
2022-11-21T13:28:14.546Z,0.80
2022-11-21T13:30:50.253Z,0.80
2022-11-21T13:33:35.529Z,0.80
2022-11-21T13:36:32.204Z,0.80
2022-11-21T13:39:00.550Z,0.80
2022-11-21T13:41:55.620Z,0.80
2022-11-21T13:44:32.507Z,0.80
2022-11-21T13:47:29.600Z,0.80
2022-11-21T13:50:17.723Z,0.80
2022-11-21T13:53:10.923Z,0.80
2022-11-21T13:56:06.808Z,0.90
2022-11-21T13:59:20.663Z,0.90
2022-11-21T14:02:17.455Z,0.80
2022-11-21T14:05:08.389Z,0.90
2022-11-21T14:07:38.183Z,0.90
2022-11-21T14:10:28.480Z,0.90
2022-11-21T14:12:56.233Z,0.80
2022-11-21T14:15:44.695Z,0.90
2022-11-21T14:18:33.043Z,1.10
2022-11-21T14:21:02.097Z,1.00
2022-11-21T14:23:32.558Z,1.00
2022-11-21T14:26:21.511Z,0.90
2022-11-21T14:28:48.995Z,0.90
2022-11-21T14:31:16.237Z,1.00
2022-11-21T14:33:48.497Z,1.10
2022-11-21T14:36:17.539Z,1.00
2022-11-21T14:39:35.493Z,0.90
2022-11-21T14:42:03.438Z,1.00
2022-11-21T14:44:32.788Z,0.90
2022-11-21T14:47:08.861Z,0.80
2022-11-21T14:49:36.524Z,0.80
2022-11-21T14:52:17.088Z,0.80
2022-11-21T14:57:45.052Z,1.00
2022-11-21T15:03:20.023Z,1.10
2022-11-21T15:06:04.129Z,1.00
2022-11-21T15:11:34.658Z,0.80
2022-11-21T15:14:17.014Z,0.70
2022-11-21T15:16:51.428Z,0.70
2022-11-21T15:20:04.764Z,0.70
2022-11-21T16:53:20.085Z,0.70
2022-11-21T16:55:46.925Z,0.80
2022-11-21T16:58:13.733Z,0.70
2022-11-21T17:00:40.790Z,0.80
2022-11-21T17:03:07.755Z,1.00
2022-11-21T17:05:34.610Z,0.80
2022-11-21T17:08:01.479Z,0.90
2022-11-21T17:10:33.960Z,0.80
2022-11-21T17:13:01.157Z,0.80
2022-11-21T17:15:28.040Z,0.80
2022-11-21T17:17:55.977Z,0.80
2022-11-21T17:20:22.806Z,0.80
2022-11-21T17:22:49.731Z,0.80
2022-11-21T17:25:16.662Z,0.90
2022-11-21T17:27:44.569Z,0.90
2022-11-21T17:30:13.418Z,0.90
2022-11-21T17:32:40.288Z,0.80
2022-11-21T17:35:08.279Z,0.80
2022-11-21T17:37:35.198Z,0.80
2022-11-21T17:40:02.203Z,0.80
2022-11-21T17:42:29.125Z,0.80
2022-11-21T17:44:55.932Z,0.80
2022-11-21T17:47:22.960Z,0.80
2022-11-21T17:49:49.920Z,0.90
2022-11-21T17:52:16.805Z,1.00
2022-11-21T17:54:44.408Z,1.00
2022-11-21T17:57:11.239Z,1.10
2022-11-21T17:59:38.636Z,1.20
2022-11-21T18:02:06.535Z,1.30
2022-11-21T18:04:34.576Z,1.10
2022-11-21T18:07:02.178Z,1.20
2022-11-21T18:09:29.337Z,1.20
2022-11-21T18:11:57.830Z,1.10
2022-11-21T18:14:25.438Z,1.00
2022-11-21T18:16:55.924Z,0.90
2022-11-21T18:19:22.978Z,1.00
2022-11-21T18:21:50.379Z,0.90
2022-11-21T18:24:17.195Z,0.90
2022-11-21T18:26:44.049Z,0.80
2022-11-21T18:31:58.172Z,0.80
2022-11-21T18:34:25.047Z,0.80
2022-11-21T18:36:51.927Z,0.90
2022-11-21T18:39:18.778Z,0.80
2022-11-21T18:41:46.984Z,0.80
2022-11-21T18:44:21.273Z,0.90
2022-11-21T18:46:48.467Z,0.80
2022-11-21T18:49:19.685Z,0.70
2022-11-21T18:51:48.120Z,0.70
2022-11-21T18:54:15.459Z,0.70
2022-11-21T18:56:44.375Z,0.70
2022-11-21T18:59:11.541Z,0.80
2022-11-21T19:01:39.995Z,0.70
2022-11-21T19:04:07.236Z,0.70
2022-11-21T19:06:34.445Z,0.80
2022-11-21T19:09:01.380Z,0.80
2022-11-21T19:11:29.936Z,0.80
2022-11-21T19:13:59.350Z,0.80
2022-11-21T19:16:27.746Z,0.80
2022-11-21T19:21:42.828Z,0.80
2022-11-21T19:24:14.271Z,0.80
2022-11-21T19:26:41.900Z,0.90
2022-11-21T19:29:10.041Z,0.90
2022-11-21T19:31:43.040Z,1.00
2022-11-21T19:34:15.255Z,1.00
2022-11-21T19:36:42.649Z,1.00
2022-11-21T19:39:09.676Z,1.00
2022-11-21T19:41:36.867Z,1.10
2022-11-21T19:44:03.980Z,1.20
2022-11-21T19:46:38.030Z,1.10
2022-11-21T19:49:06.318Z,1.10
2022-11-21T19:51:39.160Z,1.10
2022-11-21T19:54:07.777Z,1.30
2022-11-21T19:56:35.009Z,1.30
2022-11-21T19:59:03.426Z,1.30
2022-11-21T20:01:32.298Z,1.30
2022-11-21T20:04:04.255Z,1.40
2022-11-21T20:06:35.326Z,1.50
2022-11-21T20:09:11.727Z,1.50
2022-11-21T20:11:46.404Z,1.50
2022-11-21T20:14:18.041Z,1.50
2022-11-21T20:16:49.953Z,1.60
2022-11-21T20:19:19.292Z,1.50
2022-11-21T20:21:47.829Z,1.50
2022-11-21T20:24:22.421Z,1.60
2022-11-21T20:26:49.502Z,1.50
2022-11-21T20:29:18.339Z,1.60
2022-11-21T20:31:49.352Z,1.60
2022-11-21T20:34:17.454Z,1.60
2022-11-21T20:36:45.367Z,1.60
2022-11-21T20:39:15.166Z,1.60
2022-11-21T20:41:43.438Z,1.60
2022-11-21T20:47:11.754Z,1.50
2022-11-21T20:49:38.966Z,1.50
2022-11-21T20:54:55.531Z,1.40
2022-11-21T20:57:28.336Z,1.50
2022-11-21T20:59:55.273Z,1.50
2022-11-21T21:02:24.777Z,1.60
2022-11-21T21:04:51.689Z,1.60
2022-11-21T21:07:19.320Z,1.60
2022-11-21T21:09:46.200Z,1.50
2022-11-21T21:12:13.085Z,1.40
2022-11-21T21:14:40.009Z,1.60
2022-11-21T21:17:06.890Z,1.70
2022-11-21T21:19:33.808Z,1.70
2022-11-21T21:22:00.825Z,1.60
2022-11-21T21:24:30.546Z,1.60
2022-11-21T21:26:57.430Z,1.60
2022-11-21T21:29:27.577Z,1.60
2022-11-21T21:31:54.676Z,1.70
2022-11-21T21:34:22.446Z,1.60
2022-11-21T21:36:51.434Z,1.60
2022-11-21T21:39:18.789Z,1.60
2022-11-21T21:41:48.214Z,1.50
2022-11-21T21:44:15.730Z,1.50
2022-11-21T21:46:42.918Z,1.50
2022-11-21T21:49:09.814Z,1.50
2022-11-21T21:51:43.648Z,1.50
2022-11-21T21:54:19.786Z,1.40
2022-11-21T21:56:47.671Z,1.60
2022-11-21T21:59:15.125Z,1.70
2022-11-21T22:01:42.980Z,1.60
2022-11-21T22:04:14.210Z,1.50
2022-11-21T22:06:41.124Z,1.50
2022-11-21T22:09:08.455Z,1.40
2022-11-21T22:11:38.617Z,1.40
2022-11-21T22:14:16.117Z,1.40
2022-11-21T22:16:44.020Z,1.60
2022-11-21T22:19:10.899Z,1.60
2022-11-21T22:21:38.602Z,1.60
2022-11-21T22:24:27.810Z,1.60
2022-11-21T22:26:55.332Z,1.50
2022-11-21T22:29:22.240Z,1.40
2022-11-21T22:31:51.728Z,1.50
2022-11-21T22:34:18.692Z,1.50
2022-11-21T22:36:46.840Z,1.50
2022-11-21T22:39:14.074Z,1.60
2022-11-21T22:41:41.164Z,1.70
2022-11-21T22:44:08.134Z,1.70
2022-11-21T22:46:37.667Z,1.70
2022-11-21T22:49:07.695Z,1.70
2022-11-21T22:51:34.801Z,1.70
2022-11-21T22:54:01.634Z,1.50
2022-11-21T22:56:28.496Z,1.50
2022-11-21T22:58:56.265Z,1.70
2022-11-21T23:01:25.423Z,1.70
2022-11-21T23:03:52.814Z,1.70
2022-11-21T23:06:23.625Z,1.70
2022-11-21T23:08:52.068Z,1.70
2022-11-21T23:11:24.509Z,1.80
2022-11-21T23:13:52.038Z,1.60
2022-11-21T23:16:19.671Z,1.70
2022-11-21T23:18:47.604Z,1.60
2022-11-21T23:21:15.098Z,1.60
2022-11-21T23:23:42.201Z,1.60
2022-11-21T23:26:10.755Z,1.70
2022-11-21T23:28:42.667Z,1.70
2022-11-21T23:31:10.527Z,1.70
2022-11-21T23:33:39.424Z,1.60
2022-11-21T23:36:08.234Z,1.60
2022-11-21T23:38:35.194Z,1.70
2022-11-21T23:41:02.021Z,1.70
2022-11-21T23:43:31.479Z,1.80
2022-11-21T23:45:59.517Z,1.90
2022-11-21T23:48:28.490Z,1.80
2022-11-21T23:50:55.441Z,1.70
2022-11-21T23:53:22.710Z,1.60
2022-11-21T23:55:52.653Z,1.60
2022-11-21T23:58:19.483Z,1.60
